Terminal Aerodrome Forecast
Issued by NWS

Home | Current Version | Previous Version | Text Only | Print | Product List | Glossary On
Versions: 1 2 3 4 5 6 7 8 9 10 11 12 13 14
000
FTUS45 KFGZ 251900 AAA
TAFPRC
TAF AMD
KPRC 251935Z 2520/2618 27012KT P6SM FEW030 SCT070
     FM260200 30009KT P6SM SCT060
     FM261200 VRB05KT P6SM FEW050=

USA.gov is the U.S. government's official web portal to all federal, state and local government web resources and services.